Portada
METAR-TAF:

METAR-TAF

Aeropuertos :

Aeropuerto de Rodez-Aveyron

Rodez, Francia

latitud: 44-24N, longitud: 002-29E, altitud: 581 m

Observación

El informe se hizo hace 36 minutos, a las 08:30 UTC
Viento 4 kt del oeste, variando entre sur-suroeste y norte
Temperatura 19°C
Humedad 73%
Presión 1019 hPa
Visibilidad 10 km o más
Cielo cubierto a una altura de 2700 ft

METAR: LFCR 140830Z AUTO 27004KT 200V350 9999 OVC027 19/14 Q1019 NOSIG

Hora: 11:06 (09:06 UTC)

Pronóstico

El informe se hizo hace 4 horas y 6 minutos, a las 05:00 UTC
Pronóstico válido del 14 a las 06 UTC al 15 a las 06 UTC
Viento 4 kt del noroeste
Visibilidad 10 km o más
Cielo cubierto a una altura de 1000 ft
Evolucionando progresivamente
del 14 a las 06 UTC al 14 a las 08 UTC
Cielo nuboso a una altura de 1600 ft

TAF: LFCR 140500Z 1406/1506 31004KT 9999 OVC010 BECMG 1406/1408 BKN016

Observaciones y pronósticos meteorológicos de más de 4000 aeropuertos (mensajes METAR y TAF).

Los puntos amarillos y rojos representan las estaciones disponibles.

Ponga el ratón en el punto deseado para ver el nombre de la estación.

Haga clic para ver las observaciones y los pronósticos meteorológicos.

Para cambiar el mapa : haga clic en los botones verdes con una cruz de color negro para hacer un zoom, en el botón verde con un guión para alejar o en las flechas verdes para mapas adyacentes.


METAR-TAF: